createdAt,value
2018-11-27T00:00:42.385Z,97906.98
2018-11-27T00:03:13.784Z,97906.63
2018-11-27T00:05:43.876Z,97906.56
2018-11-27T00:08:17.118Z,97915.14
2018-11-27T00:10:47.412Z,97917.19
2018-11-27T00:13:17.361Z,97913.06
2018-11-27T00:15:48.032Z,97919.81
2018-11-27T00:18:18.123Z,97933.73
2018-11-27T00:20:48.458Z,97934.05
2018-11-27T00:23:18.560Z,97933.91
2018-11-27T00:25:48.818Z,97933.98
2018-11-27T00:28:19.113Z,97937.97
2018-11-27T00:30:49.359Z,97938.30
2018-11-27T00:33:19.631Z,97939.36
2018-11-27T00:35:50.015Z,97943.37
2018-11-27T00:38:20.183Z,97944.19
2018-11-27T00:40:50.465Z,97953.27
2018-11-27T00:46:01.027Z,97960.53
2018-11-27T00:48:31.317Z,97943.05
2018-11-27T00:51:01.677Z,97941.72
2018-11-27T00:53:31.897Z,97942.39
2018-11-27T00:56:02.903Z,97948.34
2018-11-27T00:58:33.142Z,97946.09
2018-11-27T01:01:03.432Z,97954.96
2018-11-27T01:03:34.660Z,97956.70
2018-11-27T01:08:41.568Z,97958.73
2018-11-27T01:11:11.697Z,97959.31
2018-11-27T01:13:42.714Z,97952.08
2018-11-27T01:16:13.553Z,97961.41
2018-11-27T01:18:43.600Z,97959.31
2018-11-27T01:23:51.411Z,97958.87
2018-11-27T01:26:22.780Z,97966.63
2018-11-27T01:28:53.467Z,97960.17
2018-11-27T01:31:23.886Z,97954.52
2018-11-27T01:33:54.977Z,97959.34
2018-11-27T01:36:25.392Z,97954.22
2018-11-27T01:38:55.746Z,97965.07
2018-11-27T01:41:26.902Z,97956.04
2018-11-27T01:43:57.145Z,97955.81
2018-11-27T01:46:27.340Z,97959.48
2018-11-27T01:48:57.535Z,97958.98
2018-11-27T01:51:27.717Z,97959.83
2018-11-27T01:53:57.930Z,97958.01
2018-11-27T01:56:28.491Z,97966.05
2018-11-27T01:58:58.670Z,97962.69
2018-11-27T02:01:29.309Z,97965.52
2018-11-27T02:04:00.008Z,97954.58
2018-11-27T02:06:30.383Z,97965.37
2018-11-27T02:09:00.802Z,97967.87
2018-11-27T02:11:31.333Z,97952.00
2018-11-27T02:14:01.508Z,97970.55
2018-11-27T02:16:31.729Z,97968.86
2018-11-27T02:19:03.483Z,97968.23
2018-11-27T02:21:33.679Z,97966.56
2018-11-27T02:24:04.010Z,97974.07
2018-11-27T02:26:34.122Z,97971.47
2018-11-27T02:29:06.943Z,97967.75
2018-11-27T02:31:37.867Z,97955.52
2018-11-27T02:34:08.100Z,97973.77
2018-11-27T02:36:38.885Z,97968.49
2018-11-27T02:39:09.366Z,97976.78
2018-11-27T02:41:39.968Z,97972.87
2018-11-27T02:44:10.619Z,97975.95
2018-11-27T02:46:41.632Z,97981.41
2018-11-27T02:49:12.320Z,97984.56
2018-11-27T02:51:43.149Z,97988.05
2018-11-27T02:58:02.054Z,97990.33
2018-11-27T03:00:33.097Z,97985.52
2018-11-27T03:03:03.389Z,97987.20
2018-11-27T03:05:36.138Z,97986.02
2018-11-27T03:08:06.387Z,97987.56
2018-11-27T03:10:36.608Z,97997.34
2018-11-27T03:13:07.064Z,97999.59
2018-11-27T03:15:37.379Z,97997.50
2018-11-27T03:18:07.972Z,98008.61
2018-11-27T03:20:38.185Z,98014.31
2018-11-27T03:23:08.499Z,98015.23
2018-11-27T03:25:38.479Z,98021.41
2018-11-27T03:28:08.532Z,98023.40
2018-11-27T03:30:40.037Z,98022.69
2018-11-27T03:33:10.688Z,98027.20
2018-11-27T03:35:41.347Z,98025.68
2018-11-27T03:38:12.251Z,98023.80
2018-11-27T03:40:42.616Z,98031.78
2018-11-27T03:43:12.690Z,98030.45
2018-11-27T03:45:42.769Z,98030.14
2018-11-27T03:48:12.864Z,98030.28
2018-11-27T03:50:43.078Z,98026.44
2018-11-27T03:53:13.870Z,98028.45
2018-11-27T03:55:44.061Z,98031.95
2018-11-27T03:58:13.995Z,98033.86
2018-11-27T04:00:44.315Z,98032.53
2018-11-27T04:03:14.621Z,98023.28
2018-11-27T04:05:44.811Z,98034.53
2018-11-27T04:08:14.974Z,98037.69
2018-11-27T04:10:45.199Z,98033.78
2018-11-27T04:13:15.505Z,98030.84
2018-11-27T04:15:45.838Z,98041.62
2018-11-27T04:18:16.034Z,98043.61
2018-11-27T04:20:46.674Z,98035.94
2018-11-27T04:23:16.767Z,98045.77
2018-11-27T04:25:47.278Z,98059.20
2018-11-27T04:28:17.593Z,98058.55
2018-11-27T04:30:48.539Z,98060.18
2018-11-27T04:33:18.870Z,98062.20
2018-11-27T04:35:49.679Z,98062.48
2018-11-27T04:38:20.115Z,98064.03
2018-11-27T04:40:50.485Z,98056.33
2018-11-27T04:43:20.673Z,98073.63
2018-11-27T04:45:51.193Z,98076.14
2018-11-27T04:48:21.660Z,98073.59
2018-11-27T04:50:52.097Z,98064.22
2018-11-27T04:53:22.913Z,98074.19
2018-11-27T04:55:53.691Z,98080.74
2018-11-27T04:58:24.153Z,98081.45
2018-11-27T05:00:54.444Z,98082.23
2018-11-27T05:03:24.502Z,98083.77
2018-11-27T05:05:54.575Z,98094.19
2018-11-27T05:08:24.759Z,98095.32
2018-11-27T05:10:55.624Z,98102.99
2018-11-27T05:13:28.246Z,98103.48
2018-11-27T05:15:58.661Z,98106.15
2018-11-27T05:18:28.945Z,98105.80
2018-11-27T05:20:59.401Z,98111.92
2018-11-27T05:23:29.839Z,98115.89
2018-11-27T05:26:00.021Z,98112.09
2018-11-27T05:28:30.108Z,98111.90
2018-11-27T05:31:00.280Z,98117.72
2018-11-27T05:33:30.910Z,98124.36
2018-11-27T05:36:02.577Z,98127.72
2018-11-27T05:38:33.585Z,98139.00
2018-11-27T05:41:04.175Z,98132.19
2018-11-27T05:43:34.539Z,98145.99
2018-11-27T05:46:06.239Z,98135.69
2018-11-27T05:48:36.584Z,98141.55
2018-11-27T05:51:07.756Z,98142.01
2018-11-27T05:53:38.156Z,98144.59
2018-11-27T05:56:08.383Z,98138.69
2018-11-27T05:58:38.615Z,98152.13
2018-11-27T06:01:08.857Z,98160.94
2018-11-27T06:03:39.351Z,98154.63
2018-11-27T06:06:09.449Z,98163.11
2018-11-27T06:08:39.718Z,98151.70
2018-11-27T06:11:09.954Z,98165.67
2018-11-27T06:13:40.888Z,98169.30
2018-11-27T06:16:11.011Z,98173.45
2018-11-27T06:18:41.431Z,98177.63
2018-11-27T06:21:11.655Z,98190.53
2018-11-27T06:23:42.184Z,98189.58
2018-11-27T06:26:12.450Z,98201.20
2018-11-27T06:28:42.462Z,98211.00
2018-11-27T06:31:12.794Z,98201.20
2018-11-27T06:33:43.272Z,98215.63
2018-11-27T06:36:13.314Z,98195.55
2018-11-27T06:38:43.649Z,98220.34
2018-11-27T06:41:13.751Z,98229.48
2018-11-27T06:43:43.916Z,98233.78
2018-11-27T06:46:13.982Z,98225.16
2018-11-27T06:48:44.166Z,98234.62
2018-11-27T06:51:14.194Z,98238.61
2018-11-27T06:53:44.178Z,98237.95
2018-11-27T06:56:14.431Z,98241.27
2018-11-27T06:58:45.482Z,98242.93
2018-11-27T07:01:15.630Z,98234.47
2018-11-27T07:03:46.346Z,98250.56
2018-11-27T07:06:16.438Z,98246.05
2018-11-27T07:08:47.776Z,98246.23
2018-11-27T07:11:17.704Z,98249.58
2018-11-27T07:13:47.775Z,98252.55
2018-11-27T07:16:17.890Z,98252.70
2018-11-27T07:18:47.909Z,98255.55
2018-11-27T07:21:17.942Z,98250.22
2018-11-27T07:23:48.388Z,98273.66
2018-11-27T07:26:18.989Z,98267.69
2018-11-27T07:28:52.874Z,98265.83
2018-11-27T07:31:23.077Z,98271.33
2018-11-27T07:33:53.470Z,98280.63
2018-11-27T07:36:27.336Z,98274.02
2018-11-27T07:38:58.223Z,98270.37
2018-11-27T07:41:28.752Z,98290.80
2018-11-27T07:43:58.778Z,98294.31
2018-11-27T07:46:28.692Z,98289.33
2018-11-27T07:48:59.214Z,98301.27
2018-11-27T07:51:30.070Z,98296.65
2018-11-27T07:54:04.219Z,98298.11
2018-11-27T07:56:34.101Z,98309.09
2018-11-27T07:59:04.468Z,98290.00
2018-11-27T08:01:34.653Z,98309.75
2018-11-27T08:06:44.656Z,98320.70
2018-11-27T08:09:14.732Z,98328.48
2018-11-27T08:11:45.246Z,98337.45
2018-11-27T08:14:15.591Z,98336.30
2018-11-27T08:16:45.866Z,98341.10
2018-11-27T08:19:16.478Z,98338.78
2018-11-27T08:21:46.774Z,98349.41
2018-11-27T08:24:16.865Z,98340.77
2018-11-27T08:26:46.960Z,98353.88
2018-11-27T08:29:17.114Z,98351.25
2018-11-27T08:31:47.200Z,98357.23
2018-11-27T08:34:17.125Z,98356.38
2018-11-27T08:36:47.499Z,98370.48
2018-11-27T08:39:17.747Z,98376.96
2018-11-27T08:41:47.972Z,98378.27
2018-11-27T08:44:18.232Z,98372.27
2018-11-27T08:46:48.481Z,98376.62
2018-11-27T08:49:18.553Z,98384.77
2018-11-27T08:51:48.725Z,98388.61
2018-11-27T08:54:18.834Z,98397.92
2018-11-27T08:56:48.832Z,98392.42
2018-11-27T08:59:18.772Z,98399.71
2018-11-27T09:01:48.940Z,98393.90
2018-11-27T09:04:19.008Z,98392.39
2018-11-27T09:06:49.463Z,98386.26
2018-11-27T09:09:20.183Z,98389.08
2018-11-27T09:11:50.853Z,98382.91
2018-11-27T09:14:20.935Z,98395.56
2018-11-27T09:16:51.509Z,98398.55
2018-11-27T09:19:21.962Z,98405.69
2018-11-27T09:21:52.163Z,98403.51
2018-11-27T09:24:22.822Z,98408.00
2018-11-27T09:26:52.938Z,98406.86
2018-11-27T09:29:23.119Z,98411.67
2018-11-27T09:31:53.079Z,98406.67
2018-11-27T09:34:23.510Z,98406.02
2018-11-27T09:36:53.609Z,98402.69
2018-11-27T09:39:23.609Z,98408.17
2018-11-27T09:41:53.805Z,98416.33
2018-11-27T09:44:23.845Z,98408.34
2018-11-27T09:46:54.329Z,98410.02
2018-11-27T09:49:24.524Z,98413.99
2018-11-27T09:51:54.560Z,98412.15
2018-11-27T09:54:24.968Z,98412.16
2018-11-27T09:56:54.960Z,98409.84
2018-11-27T09:59:24.987Z,98408.45
2018-11-27T10:01:54.910Z,98412.11
2018-11-27T10:04:25.047Z,98417.13
2018-11-27T10:06:55.709Z,98410.97
2018-11-27T10:09:25.782Z,98426.56
2018-11-27T10:11:56.040Z,98413.72
2018-11-27T10:14:26.091Z,98426.72
2018-11-27T10:16:56.428Z,98421.70
2018-11-27T10:19:28.200Z,98421.02
2018-11-27T10:21:57.044Z,98418.98
2018-11-27T10:24:27.847Z,98418.14
2018-11-27T10:26:57.952Z,98426.50
2018-11-27T10:29:28.283Z,98430.77
2018-11-27T10:31:58.395Z,98427.41
2018-11-27T10:34:28.485Z,98419.72
2018-11-27T10:36:59.324Z,98424.85
2018-11-27T10:39:29.900Z,98423.18
2018-11-27T10:42:00.024Z,98419.98
2018-11-27T10:44:29.985Z,98423.13
2018-11-27T10:47:00.103Z,98422.58
2018-11-27T10:49:30.791Z,98423.41
2018-11-27T10:52:00.683Z,98428.83
2018-11-27T10:54:32.353Z,98425.56
2018-11-27T10:57:02.350Z,98429.91
2018-11-27T10:59:32.666Z,98434.61
2018-11-27T11:02:07.954Z,98436.34
2018-11-27T11:04:38.743Z,98443.34
2018-11-27T11:07:08.793Z,98450.05
2018-11-27T11:09:39.272Z,98449.86
2018-11-27T11:12:10.019Z,98456.41
2018-11-27T11:14:40.209Z,98455.88
2018-11-27T11:17:10.546Z,98457.64
2018-11-27T11:19:41.480Z,98461.92
2018-11-27T11:22:11.757Z,98466.95
2018-11-27T11:24:42.066Z,98465.01
2018-11-27T11:27:12.113Z,98462.23
2018-11-27T11:29:43.275Z,98464.46
2018-11-27T11:32:13.287Z,98463.31
2018-11-27T11:34:43.281Z,98467.56
2018-11-27T11:37:13.384Z,98473.38
2018-11-27T11:39:43.442Z,98461.70
2018-11-27T11:42:14.049Z,98463.52
2018-11-27T11:44:44.242Z,98466.06
2018-11-27T11:47:15.288Z,98466.80
2018-11-27T11:49:46.109Z,98474.72
2018-11-27T11:52:17.500Z,98469.85
2018-11-27T11:54:47.653Z,98481.43
2018-11-27T11:57:17.776Z,98479.82
2018-11-27T11:59:47.876Z,98483.69
2018-11-27T12:02:18.081Z,98490.34
2018-11-27T12:04:48.075Z,98498.98
2018-11-27T12:07:18.212Z,98495.12
2018-11-27T12:09:48.249Z,98501.25
2018-11-27T12:12:18.514Z,98501.80
2018-11-27T12:14:48.888Z,98511.00
2018-11-27T12:17:19.700Z,98514.56
2018-11-27T12:19:49.636Z,98514.50
2018-11-27T12:22:19.718Z,98513.28
2018-11-27T12:24:49.942Z,98517.48
2018-11-27T12:27:21.027Z,98514.63
2018-11-27T12:29:51.157Z,98524.10
2018-11-27T12:32:21.138Z,98527.40
2018-11-27T12:34:51.142Z,98522.97
2018-11-27T12:37:21.136Z,98531.89
2018-11-27T12:39:51.620Z,98532.68
2018-11-27T12:42:21.633Z,98537.16
2018-11-27T12:44:51.857Z,98538.43
2018-11-27T12:47:22.431Z,98534.44
2018-11-27T12:49:52.846Z,98531.63
2018-11-27T12:52:22.934Z,98544.97
2018-11-27T12:54:53.675Z,98556.05
2018-11-27T12:57:23.729Z,98557.75
2018-11-27T12:59:54.088Z,98555.52
2018-11-27T13:02:24.127Z,98556.27
2018-11-27T13:04:54.101Z,98558.30
2018-11-27T13:07:24.027Z,98556.95
2018-11-27T13:09:54.222Z,98558.64
2018-11-27T13:12:24.881Z,98564.89
2018-11-27T13:14:54.842Z,98566.55
2018-11-27T13:17:24.932Z,98574.09
2018-11-27T13:19:55.093Z,98578.73
2018-11-27T13:22:25.837Z,98575.37
2018-11-27T13:24:56.037Z,98578.71
2018-11-27T13:27:26.493Z,98584.16
2018-11-27T13:29:56.779Z,98583.67
2018-11-27T13:32:26.856Z,98586.44
2018-11-27T13:34:57.010Z,98590.78
2018-11-27T13:37:27.126Z,98598.52
2018-11-27T13:39:57.147Z,98600.91
2018-11-27T13:42:27.390Z,98598.19
2018-11-27T13:44:57.489Z,98604.49
2018-11-27T13:47:27.819Z,98606.61
2018-11-27T13:49:57.935Z,98603.64
2018-11-27T13:52:27.970Z,98605.34
2018-11-27T13:54:58.280Z,98610.38
2018-11-27T13:57:28.469Z,98615.22
2018-11-27T13:59:58.523Z,98617.69
2018-11-27T14:02:28.845Z,98615.81
2018-11-27T14:04:58.920Z,98621.44
2018-11-27T14:07:29.031Z,98622.63
2018-11-27T14:09:59.200Z,98621.49
2018-11-27T14:12:30.042Z,98621.55
2018-11-27T14:15:00.121Z,98623.38
2018-11-27T14:17:30.361Z,98628.02
2018-11-27T14:20:00.722Z,98627.38
2018-11-27T14:22:30.804Z,98628.06
2018-11-27T14:25:00.852Z,98634.09
2018-11-27T14:27:31.688Z,98640.25
2018-11-27T14:30:01.937Z,98638.54
2018-11-27T14:35:08.294Z,98638.09
2018-11-27T14:37:39.003Z,98642.97
2018-11-27T14:40:14.461Z,98645.75
2018-11-27T14:42:44.757Z,98644.61
2018-11-27T14:47:54.166Z,98652.16
2018-11-27T14:50:24.252Z,98654.52
2018-11-27T14:52:54.323Z,98659.81
2018-11-27T14:55:28.851Z,98664.49
2018-11-27T14:57:58.893Z,98670.36
2018-11-27T15:00:29.140Z,98668.99
2018-11-27T15:02:59.335Z,98677.30
2018-11-27T15:05:32.846Z,98680.00
2018-11-27T15:08:03.464Z,98687.50
2018-11-27T15:10:33.620Z,98688.98
2018-11-27T15:13:03.918Z,98688.48
2018-11-27T15:15:33.813Z,98691.84
2018-11-27T15:18:03.791Z,98699.68
2018-11-27T15:20:34.015Z,98697.70
2018-11-27T15:23:05.156Z,98695.52
2018-11-27T15:25:36.570Z,98699.00
2018-11-27T15:28:06.665Z,98698.88
2018-11-27T15:30:38.120Z,98698.19
2018-11-27T15:33:08.670Z,98704.70
2018-11-27T15:35:39.140Z,98717.37
2018-11-27T15:38:09.502Z,98710.06
2018-11-27T15:40:40.106Z,98709.91
2018-11-27T15:43:11.033Z,98716.04
2018-11-27T15:45:41.897Z,98710.88
2018-11-27T15:48:12.779Z,98716.03
2018-11-27T15:50:42.986Z,98715.88
2018-11-27T15:53:14.040Z,98725.54
2018-11-27T15:55:44.182Z,98725.23
2018-11-27T15:58:15.403Z,98739.02
2018-11-27T16:00:52.446Z,98733.70
2018-11-27T16:03:22.882Z,98743.55
2018-11-27T16:05:52.952Z,98744.69
2018-11-27T16:08:23.367Z,98749.39
2018-11-27T16:10:54.093Z,98746.52
2018-11-27T16:13:24.349Z,98755.38
2018-11-27T16:15:54.652Z,98753.88
2018-11-27T16:18:25.406Z,98755.36
2018-11-27T16:20:55.530Z,98760.69
2018-11-27T16:23:25.635Z,98756.03
2018-11-27T16:25:56.160Z,98760.86
2018-11-27T16:28:26.327Z,98767.02
2018-11-27T16:30:56.749Z,98764.22
2018-11-27T16:36:02.837Z,98781.34
2018-11-27T16:38:33.080Z,98789.34
2018-11-27T16:41:03.559Z,98780.66
2018-11-27T16:43:33.731Z,98789.02
2018-11-27T16:46:04.582Z,98787.48
2018-11-27T16:48:34.668Z,98790.98
2018-11-27T16:51:05.677Z,98787.50
2018-11-27T16:53:36.385Z,98790.02
2018-11-27T16:56:06.998Z,98790.83
2018-11-27T16:58:37.227Z,98792.47
2018-11-27T17:01:09.225Z,98796.16
2018-11-27T17:03:37.841Z,98807.12
2018-11-27T17:06:08.506Z,98810.80
2018-11-27T17:08:38.550Z,98812.44
2018-11-27T17:11:08.600Z,98817.45
2018-11-27T17:13:38.909Z,98819.76
2018-11-27T17:16:08.887Z,98819.63
2018-11-27T17:18:38.974Z,98831.27
2018-11-27T17:21:09.224Z,98834.59
2018-11-27T17:23:39.404Z,98839.08
2018-11-27T17:26:09.524Z,98837.60
2018-11-27T17:28:40.228Z,98842.76
2018-11-27T17:31:12.490Z,98838.42
2018-11-27T17:33:48.179Z,98841.78
2018-11-27T17:36:18.291Z,98837.63
2018-11-27T17:38:48.468Z,98841.95
2018-11-27T17:41:18.638Z,98845.30
2018-11-27T17:43:48.875Z,98846.64
2018-11-27T17:46:19.118Z,98854.11
2018-11-27T17:48:49.821Z,98845.61
2018-11-27T17:51:19.949Z,98848.28
2018-11-27T17:53:49.866Z,98852.27
2018-11-27T17:56:20.083Z,98850.91
2018-11-27T17:58:50.343Z,98860.89
2018-11-27T18:01:21.320Z,98862.55
2018-11-27T18:03:51.870Z,98861.70
2018-11-27T18:06:22.858Z,98863.66
2018-11-27T18:08:52.906Z,98872.52
2018-11-27T18:11:22.985Z,98866.64
2018-11-27T18:13:53.334Z,98863.98
2018-11-27T18:16:24.207Z,98864.95
2018-11-27T18:18:54.393Z,98866.91
2018-11-27T18:21:25.056Z,98868.39
2018-11-27T18:23:55.229Z,98872.06
2018-11-27T18:26:25.198Z,98891.47
2018-11-27T18:28:55.414Z,98887.58
2018-11-27T18:31:25.710Z,98878.91
2018-11-27T18:33:56.019Z,98885.16
2018-11-27T18:36:26.132Z,98884.53
2018-11-27T18:38:56.050Z,98873.37
2018-11-27T18:41:26.333Z,98883.79
2018-11-27T18:43:57.322Z,98890.30
2018-11-27T18:46:27.464Z,98885.25
2018-11-27T18:48:58.096Z,98884.89
2018-11-27T18:51:29.721Z,98897.70
2018-11-27T18:54:00.647Z,98894.98
2018-11-27T18:56:31.054Z,98892.64
2018-11-27T18:59:01.968Z,98900.53
2018-11-27T19:01:33.208Z,98893.58
2018-11-27T19:04:03.163Z,98900.53
2018-11-27T19:06:33.391Z,98896.83
2018-11-27T19:09:04.983Z,98902.27
2018-11-27T19:11:35.201Z,98914.23
2018-11-27T19:14:06.777Z,98914.00
2018-11-27T19:16:36.797Z,98909.65
2018-11-27T19:19:06.942Z,98914.29
2018-11-27T19:21:36.867Z,98922.56
2018-11-27T19:24:07.051Z,98927.28
2018-11-27T19:26:37.046Z,98913.98
2018-11-27T19:29:07.610Z,98927.27
2018-11-27T19:31:38.231Z,98922.39
2018-11-27T19:34:08.917Z,98920.73
2018-11-27T19:36:39.038Z,98927.33
2018-11-27T19:39:10.588Z,98928.95
2018-11-27T19:41:41.178Z,98936.63
2018-11-27T19:46:47.466Z,98942.17
2018-11-27T19:49:17.843Z,98946.68
2018-11-27T19:51:48.919Z,98947.06
2018-11-27T19:54:19.041Z,98946.92
2018-11-27T19:56:49.216Z,98947.57
2018-11-27T19:59:19.594Z,98948.71
2018-11-27T20:01:50.102Z,98953.50
2018-11-27T20:04:20.216Z,98956.27
2018-11-27T20:06:51.457Z,98957.75
2018-11-27T20:09:22.609Z,98958.63
2018-11-27T20:11:53.067Z,98963.44
2018-11-27T20:14:24.116Z,98963.41
2018-11-27T20:16:54.758Z,98967.23
2018-11-27T20:19:25.855Z,98973.00
2018-11-27T20:21:56.120Z,98964.03
2018-11-27T20:24:26.852Z,98977.60
2018-11-27T20:26:57.283Z,98971.61
2018-11-27T20:29:28.056Z,98978.44
2018-11-27T20:31:58.361Z,98984.40
2018-11-27T20:37:04.853Z,98981.48
2018-11-27T20:39:35.376Z,98982.14
2018-11-27T20:42:05.808Z,98987.55
2018-11-27T20:44:36.298Z,98989.55
2018-11-27T20:47:07.559Z,98996.34
2018-11-27T20:49:38.619Z,99002.75
2018-11-27T20:52:08.849Z,99003.11
2018-11-27T20:54:38.893Z,99004.63
2018-11-27T20:57:09.106Z,99012.09
2018-11-27T21:02:15.196Z,99009.58
2018-11-27T21:04:45.392Z,99012.52
2018-11-27T21:07:15.712Z,99006.80
2018-11-27T21:09:45.920Z,99003.14
2018-11-27T21:14:52.305Z,99004.98
2018-11-27T21:17:23.105Z,99005.07
2018-11-27T21:19:53.680Z,99011.25
2018-11-27T21:22:24.129Z,99016.47
2018-11-27T21:24:54.854Z,99014.75
2018-11-27T21:27:25.208Z,99011.23
2018-11-27T21:29:56.161Z,99016.38
2018-11-27T21:32:26.230Z,99019.48
2018-11-27T21:34:56.687Z,99021.59
2018-11-27T21:37:26.887Z,99028.03
2018-11-27T21:39:57.797Z,99035.41
2018-11-27T21:42:28.998Z,99037.78
2018-11-27T21:45:04.437Z,99039.30
2018-11-27T21:47:35.092Z,99038.58
2018-11-27T21:50:06.882Z,99033.95
2018-11-27T21:52:37.255Z,99039.84
2018-11-27T21:56:15.022Z,99033.45
2018-11-27T21:58:45.627Z,99047.11
2018-11-27T22:01:15.668Z,99044.81
2018-11-27T22:03:46.436Z,99052.78
2018-11-27T22:06:16.674Z,99052.19
2018-11-27T22:08:49.645Z,99056.85
2018-11-27T22:11:19.922Z,99048.20
2018-11-27T22:13:50.084Z,99048.25
2018-11-27T22:16:20.564Z,99045.59
2018-11-27T22:18:51.005Z,99051.09
2018-11-27T22:21:21.287Z,99052.62
2018-11-27T22:23:51.770Z,99051.24
2018-11-27T22:26:22.563Z,99068.98
2018-11-27T22:28:53.142Z,99059.08
2018-11-27T22:33:59.728Z,99058.59
2018-11-27T22:36:30.444Z,99066.10
2018-11-27T22:39:01.201Z,99053.02
2018-11-27T22:41:31.833Z,99056.67
2018-11-27T22:44:01.879Z,99058.03
2018-11-27T22:46:33.304Z,99058.88
2018-11-27T22:49:03.784Z,99053.27
2018-11-27T22:51:34.304Z,99056.89
2018-11-27T22:54:05.796Z,99062.44
2018-11-27T22:56:35.849Z,99054.78
2018-11-27T22:59:05.965Z,99055.14
2018-11-27T23:01:39.793Z,99057.02
2018-11-27T23:04:09.938Z,99059.31
2018-11-27T23:06:40.481Z,99058.34
2018-11-27T23:09:10.933Z,99059.86
2018-11-27T23:11:41.004Z,99059.08
2018-11-27T23:14:11.361Z,99051.62
2018-11-27T23:16:41.816Z,99047.51
2018-11-27T23:19:12.204Z,99047.53
2018-11-27T23:21:43.469Z,99046.91
2018-11-27T23:24:14.318Z,99044.58
2018-11-27T23:26:45.119Z,99052.41
2018-11-27T23:29:15.600Z,99045.41
2018-11-27T23:31:46.069Z,99048.75
2018-11-27T23:34:16.514Z,99048.80
2018-11-27T23:36:47.904Z,99065.30
2018-11-27T23:39:18.481Z,99051.11
2018-11-27T23:41:48.771Z,99055.80
2018-11-27T23:44:19.258Z,99060.66
2018-11-27T23:46:49.695Z,99055.64
2018-11-27T23:49:20.046Z,99057.27
2018-11-27T23:51:57.185Z,99065.13
2018-11-27T23:54:27.199Z,99073.80
2018-11-27T23:56:57.416Z,99068.36
2018-11-27T23:59:27.507Z,99068.27
